sensor_id;sensor_type;location;lat;lon;timestamp;pressure;altitude;pressure_sealevel;temperature;humidity
77079;BME280;66004;55.096;38.760;2023-04-24T00:00:07;100154.03;;;7.84;54.48
77079;BME280;66004;55.096;38.760;2023-04-24T00:02:36;100159.34;;;7.94;54.71
77079;BME280;66004;55.096;38.760;2023-04-24T00:05:06;100162.66;;;7.96;54.64
77079;BME280;66004;55.096;38.760;2023-04-24T00:07:32;100160.16;;;7.94;54.20
77079;BME280;66004;55.096;38.760;2023-04-24T00:09:57;100166.16;;;8.02;53.86
77079;BME280;66004;55.096;38.760;2023-04-24T00:12:23;100158.06;;;8.00;53.79
77079;BME280;66004;55.096;38.760;2023-04-24T00:14:48;100157.06;;;7.96;54.29
77079;BME280;66004;55.096;38.760;2023-04-24T00:17:14;100160.63;;;7.88;54.25
77079;BME280;66004;55.096;38.760;2023-04-24T00:19:39;100163.56;;;7.83;54.58
77079;BME280;66004;55.096;38.760;2023-04-24T00:22:05;100159.25;;;7.76;54.40
77079;BME280;66004;55.096;38.760;2023-04-24T00:24:30;100163.84;;;7.72;54.84
77079;BME280;66004;55.096;38.760;2023-04-24T00:26:56;100170.88;;;7.70;54.69
77079;BME280;66004;55.096;38.760;2023-04-24T00:29:21;100163.94;;;7.67;55.01
77079;BME280;66004;55.096;38.760;2023-04-24T00:31:46;100147.03;;;7.50;54.95
77079;BME280;66004;55.096;38.760;2023-04-24T00:34:12;100154.72;;;7.44;55.49
77079;BME280;66004;55.096;38.760;2023-04-24T00:36:37;100149.22;;;7.39;55.92
77079;BME280;66004;55.096;38.760;2023-04-24T00:39:03;100162.25;;;7.44;55.93
77079;BME280;66004;55.096;38.760;2023-04-24T00:41:29;100155.25;;;7.32;56.06
77079;BME280;66004;55.096;38.760;2023-04-24T00:43:55;100179.31;;;7.33;56.20
77079;BME280;66004;55.096;38.760;2023-04-24T00:46:20;100169.56;;;7.31;55.99
77079;BME280;66004;55.096;38.760;2023-04-24T00:48:46;100163.38;;;7.20;55.83
77079;BME280;66004;55.096;38.760;2023-04-24T00:51:12;100168.34;;;7.23;56.11
77079;BME280;66004;55.096;38.760;2023-04-24T00:53:37;100172.91;;;7.19;56.46
77079;BME280;66004;55.096;38.760;2023-04-24T00:56:02;100160.94;;;7.05;56.54
77079;BME280;66004;55.096;38.760;2023-04-24T00:58:29;100174.38;;;7.02;56.87
77079;BME280;66004;55.096;38.760;2023-04-24T01:00:56;100172.84;;;6.96;56.84
77079;BME280;66004;55.096;38.760;2023-04-24T01:03:25;100178.56;;;6.91;56.99
77079;BME280;66004;55.096;38.760;2023-04-24T01:05:52;100170.28;;;6.86;57.14
77079;BME280;66004;55.096;38.760;2023-04-24T01:08:19;100160.22;;;6.85;57.17
77079;BME280;66004;55.096;38.760;2023-04-24T01:10:46;100164.69;;;6.86;57.36
77079;BME280;66004;55.096;38.760;2023-04-24T01:13:13;100157.44;;;6.85;56.80
77079;BME280;66004;55.096;38.760;2023-04-24T01:15:38;100168.50;;;6.90;57.30
77079;BME280;66004;55.096;38.760;2023-04-24T01:18:05;100154.53;;;6.90;56.97
77079;BME280;66004;55.096;38.760;2023-04-24T01:20:31;100151.41;;;6.78;56.71
77079;BME280;66004;55.096;38.760;2023-04-24T01:22:58;100164.03;;;6.89;56.43
77079;BME280;66004;55.096;38.760;2023-04-24T01:25:24;100159.00;;;6.91;56.05
77079;BME280;66004;55.096;38.760;2023-04-24T01:27:51;100158.44;;;6.89;55.65
77079;BME280;66004;55.096;38.760;2023-04-24T01:30:16;100157.00;;;6.92;55.72
77079;BME280;66004;55.096;38.760;2023-04-24T01:32:42;100156.19;;;6.91;55.36
77079;BME280;66004;55.096;38.760;2023-04-24T01:35:09;100162.41;;;6.88;55.43
77079;BME280;66004;55.096;38.760;2023-04-24T01:37:35;100156.19;;;6.91;55.30
77079;BME280;66004;55.096;38.760;2023-04-24T01:40:04;100156.19;;;6.91;54.95
77079;BME280;66004;55.096;38.760;2023-04-24T01:42:30;100160.03;;;6.95;54.94
77079;BME280;66004;55.096;38.760;2023-04-24T01:44:55;100158.88;;;6.96;54.91
77079;BME280;66004;55.096;38.760;2023-04-24T01:47:22;100168.41;;;6.95;54.70
77079;BME280;66004;55.096;38.760;2023-04-24T01:49:48;100164.44;;;6.96;54.69
77079;BME280;66004;55.096;38.760;2023-04-24T01:52:13;100165.63;;;6.95;54.82
77079;BME280;66004;55.096;38.760;2023-04-24T01:54:38;100183.53;;;6.94;54.82
77079;BME280;66004;55.096;38.760;2023-04-24T01:57:05;100170.28;;;6.86;55.03
77079;BME280;66004;55.096;38.760;2023-04-24T01:59:32;100174.84;;;6.82;55.85
77079;BME280;66004;55.096;38.760;2023-04-24T02:01:58;100158.91;;;6.69;56.49
77079;BME280;66004;55.096;38.760;2023-04-24T02:04:23;100172.88;;;6.69;56.37
77079;BME280;66004;55.096;38.760;2023-04-24T02:06:49;100161.91;;;6.58;56.15
77079;BME280;66004;55.096;38.760;2023-04-24T02:09:14;100170.72;;;6.66;55.99
77079;BME280;66004;55.096;38.760;2023-04-24T02:11:40;100165.13;;;6.66;55.91
77079;BME280;66004;55.096;38.760;2023-04-24T02:14:05;100166.66;;;6.72;55.51
77079;BME280;66004;55.096;38.760;2023-04-24T02:16:31;100182.31;;;6.73;55.08
77079;BME280;66004;55.096;38.760;2023-04-24T02:18:58;100171.13;;;6.73;54.61
77079;BME280;66004;55.096;38.760;2023-04-24T02:21:23;100184.38;;;6.81;54.39
77079;BME280;66004;55.096;38.760;2023-04-24T02:23:49;100172.97;;;6.77;54.28
77079;BME280;66004;55.096;38.760;2023-04-24T02:26:14;100174.00;;;6.81;54.53
77079;BME280;66004;55.096;38.760;2023-04-24T02:28:40;100172.13;;;6.91;53.85
77079;BME280;66004;55.096;38.760;2023-04-24T02:31:05;100176.47;;;7.11;53.32
77079;BME280;66004;55.096;38.760;2023-04-24T02:33:31;100174.97;;;7.27;52.34
77079;BME280;66004;55.096;38.760;2023-04-24T02:35:56;100176.97;;;7.49;51.94
77079;BME280;66004;55.096;38.760;2023-04-24T02:38:22;100176.44;;;7.61;51.71
77079;BME280;66004;55.096;38.760;2023-04-24T02:40:47;100176.59;;;7.65;51.59
77079;BME280;66004;55.096;38.760;2023-04-24T02:43:13;100170.75;;;7.52;51.98
77079;BME280;66004;55.096;38.760;2023-04-24T02:45:38;100184.94;;;7.56;52.35
77079;BME280;66004;55.096;38.760;2023-04-24T02:48:04;100177.97;;;7.53;52.51
77079;BME280;66004;55.096;38.760;2023-04-24T02:52:25;100188.81;;;7.46;52.09
77079;BME280;66004;55.096;38.760;2023-04-24T02:54:51;100191.09;;;7.44;52.41
77079;BME280;66004;55.096;38.760;2023-04-24T02:57:16;100184.81;;;7.38;52.47
77079;BME280;66004;55.096;38.760;2023-04-24T02:59:41;100192.53;;;7.41;52.44
77079;BME280;66004;55.096;38.760;2023-04-24T03:02:07;100195.66;;;7.40;52.53
77079;BME280;66004;55.096;38.760;2023-04-24T03:04:32;100189.75;;;7.41;53.24
77079;BME280;66004;55.096;38.760;2023-04-24T03:06:58;100194.84;;;7.39;53.16
77079;BME280;66004;55.096;38.760;2023-04-24T03:09:24;100194.63;;;7.36;53.79
77079;BME280;66004;55.096;38.760;2023-04-24T03:11:49;100201.44;;;7.44;53.81
77079;BME280;66004;55.096;38.760;2023-04-24T03:14:16;100208.72;;;7.45;53.73
77079;BME280;66004;55.096;38.760;2023-04-24T03:16:41;100205.81;;;7.50;53.78
77079;BME280;66004;55.096;38.760;2023-04-24T03:19:07;100201.53;;;7.52;54.00
77079;BME280;66004;55.096;38.760;2023-04-24T03:21:33;100198.53;;;7.49;53.99
77079;BME280;66004;55.096;38.760;2023-04-24T03:23:58;100206.69;;;7.59;54.25
77079;BME280;66004;55.096;38.760;2023-04-24T03:26:24;100208.25;;;7.65;53.93
77079;BME280;66004;55.096;38.760;2023-04-24T03:28:50;100207.94;;;7.67;53.87
77079;BME280;66004;55.096;38.760;2023-04-24T03:31:15;100204.69;;;7.73;53.87
77079;BME280;66004;55.096;38.760;2023-04-24T03:33:41;100205.56;;;7.83;53.84
77079;BME280;66004;55.096;38.760;2023-04-24T03:36:07;100208.75;;;7.90;53.42
77079;BME280;66004;55.096;38.760;2023-04-24T03:38:32;100201.00;;;7.87;53.50
77079;BME280;66004;55.096;38.760;2023-04-24T03:40:58;100206.72;;;8.04;53.30
77079;BME280;66004;55.096;38.760;2023-04-24T03:43:23;100209.88;;;8.11;53.18
77079;BME280;66004;55.096;38.760;2023-04-24T03:45:48;100191.25;;;8.07;53.19
77079;BME280;66004;55.096;38.760;2023-04-24T03:48:14;100211.66;;;8.30;52.76
77079;BME280;66004;55.096;38.760;2023-04-24T03:50:39;100213.03;;;8.41;52.54
77079;BME280;66004;55.096;38.760;2023-04-24T03:53:05;100214.44;;;8.52;52.45
77079;BME280;66004;55.096;38.760;2023-04-24T03:55:31;100218.63;;;8.64;52.30
77079;BME280;66004;55.096;38.760;2023-04-24T03:57:56;100219.50;;;8.73;51.97
77079;BME280;66004;55.096;38.760;2023-04-24T04:00:22;100224.16;;;8.86;51.91
77079;BME280;66004;55.096;38.760;2023-04-24T04:02:47;100222.22;;;8.95;51.66
77079;BME280;66004;55.096;38.760;2023-04-24T04:05:13;100225.22;;;9.08;51.32
77079;BME280;66004;55.096;38.760;2023-04-24T04:07:38;100224.94;;;9.18;51.22
77079;BME280;66004;55.096;38.760;2023-04-24T04:10:03;100231.25;;;9.32;51.13
77079;BME280;66004;55.096;38.760;2023-04-24T04:12:29;100237.03;;;9.45;50.93
77079;BME280;66004;55.096;38.760;2023-04-24T04:14:55;100237.22;;;9.57;50.95
77079;BME280;66004;55.096;38.760;2023-04-24T04:17:20;100235.41;;;9.70;50.54
77079;BME280;66004;55.096;38.760;2023-04-24T04:19:47;100237.38;;;9.87;50.46
77079;BME280;66004;55.096;38.760;2023-04-24T04:22:12;100237.06;;;10.06;50.26
77079;BME280;66004;55.096;38.760;2023-04-24T04:24:38;100235.19;;;10.54;49.14
77079;BME280;66004;55.096;38.760;2023-04-24T04:27:06;100228.66;;;11.09;47.83
77079;BME280;66004;55.096;38.760;2023-04-24T04:29:32;100241.28;;;11.62;46.74
77079;BME280;66004;55.096;38.760;2023-04-24T04:31:58;100244.19;;;12.17;45.87
77079;BME280;66004;55.096;38.760;2023-04-24T04:34:24;100237.81;;;12.53;45.32
77079;BME280;66004;55.096;38.760;2023-04-24T04:36:49;100238.00;;;12.81;44.50
77079;BME280;66004;55.096;38.760;2023-04-24T04:39:15;100254.03;;;13.14;43.76
77079;BME280;66004;55.096;38.760;2023-04-24T04:41:41;100244.13;;;13.08;43.53
77079;BME280;66004;55.096;38.760;2023-04-24T04:44:07;100241.53;;;13.03;43.46
77079;BME280;66004;55.096;38.760;2023-04-24T04:46:34;100239.44;;;13.12;43.18
77079;BME280;66004;55.096;38.760;2023-04-24T04:49:00;100248.72;;;13.25;42.97
77079;BME280;66004;55.096;38.760;2023-04-24T04:51:26;100248.66;;;13.34;43.40
77079;BME280;66004;55.096;38.760;2023-04-24T04:53:52;100249.84;;;13.86;41.88
77079;BME280;66004;55.096;38.760;2023-04-24T04:56:18;100242.06;;;14.23;40.15
77079;BME280;66004;55.096;38.760;2023-04-24T04:58:44;100247.59;;;14.76;38.48
77079;BME280;66004;55.096;38.760;2023-04-24T05:01:10;100244.44;;;15.09;37.38
77079;BME280;66004;55.096;38.760;2023-04-24T05:03:35;100243.31;;;15.30;36.67
77079;BME280;66004;55.096;38.760;2023-04-24T05:06:02;100242.06;;;15.79;36.05
77079;BME280;66004;55.096;38.760;2023-04-24T05:08:27;100248.09;;;15.96;36.11
77079;BME280;66004;55.096;38.760;2023-04-24T05:10:53;100243.47;;;15.88;36.31
77079;BME280;66004;55.096;38.760;2023-04-24T05:13:19;100242.50;;;15.65;36.05
77079;BME280;66004;55.096;38.760;2023-04-24T05:15:45;100249.50;;;15.51;35.74
77079;BME280;66004;55.096;38.760;2023-04-24T05:18:10;100247.53;;;15.71;36.04
77079;BME280;66004;55.096;38.760;2023-04-24T05:20:36;100248.03;;;15.93;35.07
77079;BME280;66004;55.096;38.760;2023-04-24T05:23:01;100253.22;;;16.07;35.01
77079;BME280;66004;55.096;38.760;2023-04-24T05:25:27;100250.22;;;16.19;34.90
77079;BME280;66004;55.096;38.760;2023-04-24T05:27:52;100250.38;;;16.26;34.94
77079;BME280;66004;55.096;38.760;2023-04-24T05:30:19;100241.44;;;16.47;34.83
77079;BME280;66004;55.096;38.760;2023-04-24T05:32:45;100248.97;;;16.59;34.31
77079;BME280;66004;55.096;38.760;2023-04-24T05:35:11;100251.06;;;16.62;34.45
77079;BME280;66004;55.096;38.760;2023-04-24T05:37:37;100255.09;;;16.61;34.29
77079;BME280;66004;55.096;38.760;2023-04-24T05:40:03;100252.34;;;16.65;34.12
77079;BME280;66004;55.096;38.760;2023-04-24T05:42:30;100246.66;;;16.84;33.95
77079;BME280;66004;55.096;38.760;2023-04-24T05:44:56;100258.16;;;17.15;33.66
77079;BME280;66004;55.096;38.760;2023-04-24T05:47:21;100252.59;;;17.48;33.44
77079;BME280;66004;55.096;38.760;2023-04-24T05:49:47;100250.31;;;17.58;33.29
77079;BME280;66004;55.096;38.760;2023-04-24T05:52:13;100261.78;;;17.65;32.45
77079;BME280;66004;55.096;38.760;2023-04-24T05:54:38;100249.59;;;17.91;32.60
77079;BME280;66004;55.096;38.760;2023-04-24T05:57:04;100261.16;;;18.36;31.78
77079;BME280;66004;55.096;38.760;2023-04-24T05:59:41;100247.00;;;18.43;30.94
77079;BME280;66004;55.096;38.760;2023-04-24T06:02:07;100255.47;;;18.36;31.25
77079;BME280;66004;55.096;38.760;2023-04-24T06:04:32;100252.78;;;18.50;31.19
77079;BME280;66004;55.096;38.760;2023-04-24T06:06:58;100249.75;;;18.70;30.72
77079;BME280;66004;55.096;38.760;2023-04-24T06:09:25;100250.38;;;18.86;30.46
77079;BME280;66004;55.096;38.760;2023-04-24T06:11:51;100246.22;;;18.80;30.43
77079;BME280;66004;55.096;38.760;2023-04-24T06:14:20;100248.72;;;18.85;30.35
77079;BME280;66004;55.096;38.760;2023-04-24T06:16:46;100248.19;;;19.17;29.92
77079;BME280;66004;55.096;38.760;2023-04-24T06:19:11;100246.09;;;19.62;29.44
77079;BME280;66004;55.096;38.760;2023-04-24T06:21:37;100241.50;;;20.06;28.61
77079;BME280;66004;55.096;38.760;2023-04-24T06:24:02;100247.78;;;20.47;28.12
77079;BME280;66004;55.096;38.760;2023-04-24T06:26:29;100247.50;;;20.74;27.69
77079;BME280;66004;55.096;38.760;2023-04-24T06:28:55;100239.78;;;20.99;27.14
77079;BME280;66004;55.096;38.760;2023-04-24T06:31:20;100250.81;;;21.19;26.77
77079;BME280;66004;55.096;38.760;2023-04-24T06:33:47;100253.28;;;21.31;26.19
77079;BME280;66004;55.096;38.760;2023-04-24T06:36:13;100252.47;;;21.34;25.84
77079;BME280;66004;55.096;38.760;2023-04-24T06:38:38;100251.63;;;21.37;25.16
77079;BME280;66004;55.096;38.760;2023-04-24T06:41:04;100232.03;;;21.32;24.76
77079;BME280;66004;55.096;38.760;2023-04-24T06:43:31;100249.63;;;21.49;24.90
77079;BME280;66004;55.096;38.760;2023-04-24T06:45:57;100254.94;;;21.47;24.73
77079;BME280;66004;55.096;38.760;2023-04-24T06:48:24;100247.56;;;21.38;24.34
77079;BME280;66004;55.096;38.760;2023-04-24T06:50:50;100247.16;;;21.47;24.18
77079;BME280;66004;55.096;38.760;2023-04-24T06:53:16;100252.44;;;21.42;23.59
77079;BME280;66004;55.096;38.760;2023-04-24T06:55:41;100254.91;;;21.39;23.76
77079;BME280;66004;55.096;38.760;2023-04-24T06:58:08;100251.22;;;21.35;23.53
77079;BME280;66004;55.096;38.760;2023-04-24T07:00:34;100251.66;;;21.16;23.53
77079;BME280;66004;55.096;38.760;2023-04-24T07:03:00;100242.59;;;20.89;23.14
77079;BME280;66004;55.096;38.760;2023-04-24T07:05:25;100247.50;;;20.70;23.67
77079;BME280;66004;55.096;38.760;2023-04-24T07:07:51;100249.84;;;20.50;23.15
77079;BME280;66004;55.096;38.760;2023-04-24T07:10:17;100233.44;;;20.29;23.21
77079;BME280;66004;55.096;38.760;2023-04-24T07:12:43;100248.53;;;20.30;23.90
77079;BME280;66004;55.096;38.760;2023-04-24T07:15:09;100246.50;;;20.34;23.46
77079;BME280;66004;55.096;38.760;2023-04-24T07:17:34;100245.69;;;20.30;22.74
77079;BME280;66004;55.096;38.760;2023-04-24T07:20:00;100254.66;;;20.32;23.12
77079;BME280;66004;55.096;38.760;2023-04-24T07:22:26;100250.59;;;20.33;23.38
77079;BME280;66004;55.096;38.760;2023-04-24T07:24:51;100239.19;;;20.33;22.99
77079;BME280;66004;55.096;38.760;2023-04-24T07:27:17;100242.47;;;20.42;23.37
77079;BME280;66004;55.096;38.760;2023-04-24T07:29:42;100245.75;;;20.48;23.09
77079;BME280;66004;55.096;38.760;2023-04-24T07:32:08;100249.84;;;20.50;23.41
77079;BME280;66004;55.096;38.760;2023-04-24T07:34:34;100238.41;;;20.50;22.95
77079;BME280;66004;55.096;38.760;2023-04-24T07:37:00;100248.28;;;20.64;23.04
77079;BME280;66004;55.096;38.760;2023-04-24T07:39:26;100245.03;;;20.69;22.59
77079;BME280;66004;55.096;38.760;2023-04-24T07:41:51;100252.38;;;20.70;22.32
77079;BME280;66004;55.096;38.760;2023-04-24T07:44:17;100239.22;;;20.51;22.34
77079;BME280;66004;55.096;38.760;2023-04-24T07:46:42;100235.16;;;20.48;22.32
77079;BME280;66004;55.096;38.760;2023-04-24T07:49:08;100235.16;;;20.52;22.51
77079;BME280;66004;55.096;38.760;2023-04-24T07:51:34;100232.72;;;20.54;22.66
77079;BME280;66004;55.096;38.760;2023-04-24T07:54:04;100242.50;;;20.56;22.37
77079;BME280;66004;55.096;38.760;2023-04-24T07:56:32;100233.50;;;20.51;22.32
77079;BME280;66004;55.096;38.760;2023-04-24T07:58:58;100241.28;;;20.50;22.00
77079;BME280;66004;55.096;38.760;2023-04-24T08:01:23;100222.06;;;20.43;21.53
77079;BME280;66004;55.096;38.760;2023-04-24T08:03:49;100232.72;;;20.54;21.55
77079;BME280;66004;55.096;38.760;2023-04-24T08:06:15;100236.75;;;20.49;21.35
77079;BME280;66004;55.096;38.760;2023-04-24T08:08:40;100235.97;;;20.52;21.51
77079;BME280;66004;55.096;38.760;2023-04-24T08:11:06;100220.44;;;20.46;21.58
77079;BME280;66004;55.096;38.760;2023-04-24T08:13:31;100233.91;;;20.53;21.35
77079;BME280;66004;55.096;38.760;2023-04-24T08:15:57;100239.66;;;20.56;21.37
77079;BME280;66004;55.096;38.760;2023-04-24T08:18:22;100230.66;;;20.54;21.48
77079;BME280;66004;55.096;38.760;2023-04-24T08:20:48;100225.34;;;20.46;20.97
77079;BME280;66004;55.096;38.760;2023-04-24T08:23:13;100226.16;;;20.46;21.66
77079;BME280;66004;55.096;38.760;2023-04-24T08:25:39;100212.66;;;20.39;21.35
77079;BME280;66004;55.096;38.760;2023-04-24T08:28:06;100228.63;;;20.51;21.35
77079;BME280;66004;55.096;38.760;2023-04-24T08:30:34;100223.75;;;20.55;21.29
77079;BME280;66004;55.096;38.760;2023-04-24T08:32:59;100224.56;;;20.59;21.40
77079;BME280;66004;55.096;38.760;2023-04-24T08:35:25;100212.31;;;20.55;21.09
77079;BME280;66004;55.096;38.760;2023-04-24T08:37:52;100220.47;;;20.53;20.81
77079;BME280;66004;55.096;38.760;2023-04-24T08:40:23;100203.31;;;20.53;20.76
77079;BME280;66004;55.096;38.760;2023-04-24T08:42:53;100226.63;;;20.66;20.98
77079;BME280;66004;55.096;38.760;2023-04-24T08:45:19;100215.22;;;20.70;21.00
77079;BME280;66004;55.096;38.760;2023-04-24T08:47:45;100207.47;;;20.74;20.92
77079;BME280;66004;55.096;38.760;2023-04-24T08:52:25;100187.03;;;20.65;21.28
77079;BME280;66004;55.096;38.760;2023-04-24T08:54:52;100194.81;;;20.78;21.04
77079;BME280;66004;55.096;38.760;2023-04-24T08:57:19;100198.47;;;20.79;21.17
77079;BME280;66004;55.096;38.760;2023-04-24T08:59:45;100191.16;;;20.82;21.59
77079;BME280;66004;55.096;38.760;2023-04-24T09:02:12;100194.41;;;20.80;21.37
77079;BME280;66004;55.096;38.760;2023-04-24T09:04:40;100194.41;;;20.73;21.58
77079;BME280;66004;55.096;38.760;2023-04-24T09:07:06;100185.41;;;20.64;21.14
77079;BME280;66004;55.096;38.760;2023-04-24T09:09:32;100172.28;;;20.52;21.09
77079;BME280;66004;55.096;38.760;2023-04-24T09:11:58;100182.94;;;20.62;21.11
77079;BME280;66004;55.096;38.760;2023-04-24T09:14:24;100180.47;;;20.60;21.26
77079;BME280;66004;55.096;38.760;2023-04-24T09:16:50;100182.13;;;20.61;21.52
77079;BME280;66004;55.096;38.760;2023-04-24T09:19:16;100182.13;;;20.61;21.29
77079;BME280;66004;55.096;38.760;2023-04-24T09:21:45;100176.41;;;20.61;21.72
77079;BME280;66004;55.096;38.760;2023-04-24T09:24:16;100175.59;;;20.72;21.04
77079;BME280;66004;55.096;38.760;2023-04-24T09:26:48;100180.91;;;20.77;21.09
77079;BME280;66004;55.096;38.760;2023-04-24T09:29:15;100177.66;;;20.82;21.00
77079;BME280;66004;55.096;38.760;2023-04-24T09:31:42;100182.56;;;20.92;20.92
77079;BME280;66004;55.096;38.760;2023-04-24T09:34:08;100171.53;;;20.94;20.92
77079;BME280;66004;55.096;38.760;2023-04-24T09:36:36;100168.25;;;20.92;20.86
77079;BME280;66004;55.096;38.760;2023-04-24T09:39:06;100165.00;;;20.90;20.63
77079;BME280;66004;55.096;38.760;2023-04-24T09:41:46;100170.28;;;20.81;20.68
77079;BME280;66004;55.096;38.760;2023-04-24T09:44:20;100168.28;;;20.85;20.39
77079;BME280;66004;55.096;38.760;2023-04-24T09:46:50;100165.00;;;20.90;20.72
77079;BME280;66004;55.096;38.760;2023-04-24T09:49:22;100169.06;;;21.00;20.78
77079;BME280;66004;55.096;38.760;2023-04-24T09:51:48;100158.44;;;21.08;20.74
77079;BME280;66004;55.096;38.760;2023-04-24T09:54:18;100154.38;;;21.12;20.86
77079;BME280;66004;55.096;38.760;2023-04-24T09:56:47;100140.47;;;21.18;20.73
77079;BME280;66004;55.096;38.760;2023-04-24T09:59:14;100115.13;;;21.06;20.68
77079;BME280;66004;55.096;38.760;2023-04-24T10:01:40;100137.59;;;21.32;20.67
77079;BME280;66004;55.096;38.760;2023-04-24T10:04:28;100138.81;;;21.42;20.50
77079;BME280;66004;55.096;38.760;2023-04-24T10:06:55;100150.28;;;21.46;20.12
77079;BME280;66004;55.096;38.760;2023-04-24T10:09:22;100136.75;;;21.43;20.05
77079;BME280;66004;55.096;38.760;2023-04-24T10:11:50;100137.97;;;21.42;20.27
77079;BME280;66004;55.096;38.760;2023-04-24T10:14:22;100138.38;;;21.51;20.22
77079;BME280;66004;55.096;38.760;2023-04-24T10:16:49;100135.53;;;21.51;19.88
77079;BME280;66004;55.096;38.760;2023-04-24T10:19:16;100128.19;;;21.50;19.76
77079;BME280;66004;55.096;38.760;2023-04-24T10:21:45;100130.63;;;21.41;19.96
77079;BME280;66004;55.096;38.760;2023-04-24T10:24:14;100133.09;;;21.20;20.21
77079;BME280;66004;55.096;38.760;2023-04-24T10:26:41;100135.56;;;21.08;20.14
77079;BME280;66004;55.096;38.760;2023-04-24T10:29:11;100124.13;;;21.08;20.11
77079;BME280;66004;55.096;38.760;2023-04-24T10:31:38;100115.13;;;21.06;19.79
77079;BME280;66004;55.096;38.760;2023-04-24T10:34:05;100102.06;;;21.05;19.95
77079;BME280;66004;55.096;38.760;2023-04-24T10:36:33;100129.84;;;21.22;20.10
77079;BME280;66004;55.096;38.760;2023-04-24T10:39:01;100114.25;;;21.37;19.87
77079;BME280;66004;55.096;38.760;2023-04-24T10:41:30;100124.91;;;21.33;19.49
77079;BME280;66004;55.096;38.760;2023-04-24T10:44:09;100123.31;;;21.25;19.69
77079;BME280;66004;55.096;38.760;2023-04-24T10:46:38;100119.19;;;21.26;19.54
77079;BME280;66004;55.096;38.760;2023-04-24T10:49:07;100116.78;;;21.21;19.51
77079;BME280;66004;55.096;38.760;2023-04-24T10:51:53;100102.47;;;21.10;19.53
77079;BME280;66004;55.096;38.760;2023-04-24T10:54:42;100106.13;;;21.18;19.66
77079;BME280;66004;55.096;38.760;2023-04-24T11:02:36;100111.84;;;21.25;20.02
77079;BME280;66004;55.096;38.760;2023-04-24T11:05:05;100111.84;;;21.29;20.03
77079;BME280;66004;55.096;38.760;2023-04-24T11:10:37;100109.41;;;21.13;20.20
77079;BME280;66004;55.096;38.760;2023-04-24T11:13:03;100094.34;;;20.91;20.13
77079;BME280;66004;55.096;38.760;2023-04-24T11:15:28;100100.47;;;20.82;20.65
77079;BME280;66004;55.096;38.760;2023-04-24T11:17:55;100104.53;;;20.81;20.59
77079;BME280;66004;55.096;38.760;2023-04-24T11:20:23;100106.19;;;20.89;20.57
77079;BME280;66004;55.096;38.760;2023-04-24T11:22:52;100087.38;;;21.03;20.46
77079;BME280;66004;55.096;38.760;2023-04-24T11:25:19;100084.06;;;21.15;20.32
77079;BME280;66004;55.096;38.760;2023-04-24T11:27:47;100097.16;;;21.23;20.25
77079;BME280;66004;55.096;38.760;2023-04-24T11:30:17;100093.84;;;21.32;20.32
77079;BME280;66004;55.096;38.760;2023-04-24T11:32:47;100084.03;;;21.36;20.19
77079;BME280;66004;55.096;38.760;2023-04-24T11:35:18;100083.66;;;21.27;20.36
77079;BME280;66004;55.096;38.760;2023-04-24T11:37:46;100063.69;;;20.98;20.43
77079;BME280;66004;55.096;38.760;2023-04-24T11:40:13;100069.41;;;20.91;20.67
77079;BME280;66004;55.096;38.760;2023-04-24T11:42:42;100080.84;;;20.88;20.70
77079;BME280;66004;55.096;38.760;2023-04-24T11:47:42;100074.31;;;20.73;20.70
77079;BME280;66004;55.096;38.760;2023-04-24T11:50:10;100076.78;;;20.71;21.05
77079;BME280;66004;55.096;38.760;2023-04-24T11:52:38;100066.56;;;20.77;21.13
77079;BME280;66004;55.096;38.760;2023-04-24T11:55:07;100063.69;;;20.88;20.80
77079;BME280;66004;55.096;38.760;2023-04-24T11:57:33;100067.75;;;21.15;20.53
77079;BME280;66004;55.096;38.760;2023-04-24T12:00:03;100061.13;;;21.44;20.45
77079;BME280;66004;55.096;38.760;2023-04-24T12:02:30;100069.22;;;21.70;20.48
77079;BME280;66004;55.096;38.760;2023-04-24T12:04:56;100061.81;;;21.76;19.88
77079;BME280;66004;55.096;38.760;2023-04-24T12:07:22;100058.53;;;21.78;20.13
77079;BME280;66004;55.096;38.760;2023-04-24T12:09:56;100053.63;;;21.78;20.28
77079;BME280;66004;55.096;38.760;2023-04-24T12:12:25;100057.63;;;21.92;20.04
77079;BME280;66004;55.096;38.760;2023-04-24T12:14:57;100064.13;;;22.00;19.69
77079;BME280;66004;55.096;38.760;2023-04-24T12:17:27;100062.50;;;22.02;19.75
77079;BME280;66004;55.096;38.760;2023-04-24T12:20:00;100052.66;;;22.03;19.70
77079;BME280;66004;55.096;38.760;2023-04-24T12:22:26;100062.44;;;22.09;19.43
77079;BME280;66004;55.096;38.760;2023-04-24T12:24:56;100037.94;;;22.01;19.44
77079;BME280;66004;55.096;38.760;2023-04-24T12:27:22;100055.44;;;22.17;19.63
77079;BME280;66004;55.096;38.760;2023-04-24T12:29:57;100045.59;;;22.19;19.51
77079;BME280;66004;55.096;38.760;2023-04-24T12:32:23;100055.06;;;22.15;19.39
77079;BME280;66004;55.096;38.760;2023-04-24T12:34:50;100052.63;;;22.10;19.61
77079;BME280;66004;55.096;38.760;2023-04-24T12:37:17;100055.09;;;22.08;19.33
77079;BME280;66004;55.096;38.760;2023-04-24T12:40:20;100049.00;;;21.99;19.28
77079;BME280;66004;55.096;38.760;2023-04-24T12:42:51;100048.19;;;22.02;19.35
77079;BME280;66004;55.096;38.760;2023-04-24T12:45:18;100042.84;;;22.04;19.22
77079;BME280;66004;55.096;38.760;2023-04-24T12:47:44;100046.16;;;21.99;19.26
77079;BME280;66004;55.096;38.760;2023-04-24T12:50:12;100043.69;;;21.97;19.29
77079;BME280;66004;55.096;38.760;2023-04-24T12:52:38;100037.13;;;22.04;19.58
77079;BME280;66004;55.096;38.760;2023-04-24T12:55:05;100043.66;;;22.01;19.25